Naukati Bay, Alaska
Current Conditions -  °F | °C
As of 7:53 PM on Saturday 25 Oct 2014 (Local Time) from PAKT Reporting Station
Clear Clear  
Wind Chill: 40°   Ceiling: Unl
Heat Index: 44°   Visibility: 10mi
Dew Point: 40°   Wind: 8mph
Humidity: 85%   Direction: 330°NNW
Pressure: 29.6"   Gusts: NA
Location:  55.5909°N, 131.349°W
Report Text: PAKT 260353Z 33007KT 10SM CLR 07/04 A2960 RMK AO2 SLP023 T00670044
Loading
Personal Weather Stations






























Interactive Weather Map
Tropical Storm Tracking
New forecast layout! Learn more

10-Day Weather Forecast

Advertisements
Track Severe Weather on mobile